Time;durP1;ratioP1;P1;durP2;ratioP2;P2;SDS_P1;SDS_P2;PMS_P1;PMS_P2;Temp;Humidity;BMP_temperature;BMP_pressure;BME280_temperature;BME280_humidity;BME280_pressure;Samples;Min_cycle;Max_cycle;Signal;HPM_P1;HPM_P2
2021/05/22 00:00:48;;;;;;;12.05;3.80;;;11.60;66.60;;;;;;5066195;28;20020;-86
2021/05/22 00:03:14;;;;;;;9.07;3.60;;;11.60;67.00;;;;;;5059811;28;20032;-88
2021/05/22 00:05:40;;;;;;;7.00;3.00;;;11.60;67.40;;;;;;5059706;28;20013;-87
2021/05/22 00:08:06;;;;;;;9.13;3.50;;;11.60;67.20;;;;;;5059967;28;20482;-88
2021/05/22 00:10:32;;;;;;;10.57;3.95;;;11.60;67.10;;;;;;5067174;28;20088;-87
2021/05/22 00:12:58;;;;;;;13.00;3.92;;;11.60;66.80;;;;;;5070091;28;20028;-87
2021/05/22 00:15:24;;;;;;;13.15;3.78;;;11.50;66.60;;;;;;5062988;28;20049;-87
2021/05/22 00:17:49;;;;;;;9.38;3.28;;;11.50;66.60;;;;;;5060815;28;20033;-89
2021/05/22 00:20:16;;;;;;;8.15;3.13;;;11.40;67.10;;;;;;5063703;28;20045;-87
2021/05/22 00:22:44;;;;;;;8.70;3.80;;;11.40;66.90;;;;;;5061263;28;20043;-88
2021/05/22 00:25:10;;;;;;;10.02;4.15;;;11.40;67.10;;;;;;5033093;28;20033;-86
2021/05/22 00:27:36;;;;;;;11.82;3.80;;;11.40;67.00;;;;;;5033231;28;20057;-88
2021/05/22 00:30:07;;;;;;;11.48;3.28;;;11.40;67.20;;;;;;5070376;28;20024;-88
2021/05/22 00:32:33;;;;;;;7.15;3.05;;;11.40;67.00;;;;;;5065028;28;20032;-87
2021/05/22 00:34:59;;;;;;;7.35;3.20;;;11.30;66.70;;;;;;5061340;28;20017;-87
2021/05/22 00:37:25;;;;;;;11.38;3.60;;;11.30;66.70;;;;;;5061708;28;20407;-88
2021/05/22 00:39:51;;;;;;;8.35;3.15;;;11.30;67.00;;;;;;5065443;28;20017;-88
2021/05/22 00:42:17;;;;;;;9.60;3.03;;;11.30;66.70;;;;;;5065201;28;20064;-87
2021/05/22 00:45:35;;;;;;;9.02;3.25;;;11.30;66.70;;;;;;5061981;28;20021;-87
2021/05/22 00:48:02;;;;;;;9.18;3.38;;;11.30;66.40;;;;;;5022976;28;20104;-89
2021/05/22 00:50:30;;;;;;;6.70;4.07;;;11.20;67.00;;;;;;5068576;28;20037;-89
2021/05/22 00:52:56;;;;;;;6.85;3.30;;;11.20;67.00;;;;;;5070167;28;20060;-86
2021/05/22 00:55:24;;;;;;;7.43;3.13;;;11.30;66.80;;;;;;5073444;28;20021;-86
2021/05/22 00:57:49;;;;;;;15.27;3.08;;;11.20;66.80;;;;;;5072106;28;20049;-86
2021/05/22 01:00:28;;;;;;;10.05;3.67;;;11.20;66.70;;;;;;5059016;28;20017;-88
2021/05/22 01:02:54;;;;;;;9.60;3.22;;;11.20;66.80;;;;;;5048606;28;20031;-87
2021/05/22 01:05:20;;;;;;;7.95;3.30;;;11.20;66.50;;;;;;5056860;28;20025;-88
2021/05/22 01:07:48;;;;;;;7.68;3.60;;;11.10;66.30;;;;;;5051130;28;20021;-87
2021/05/22 01:10:16;;;;;;;11.93;3.55;;;11.10;66.40;;;;;;5053964;28;20022;-87
2021/05/22 01:12:46;;;;;;;18.08;6.35;;;11.20;66.50;;;;;;5039633;28;20064;-87
2021/05/22 01:15:17;;;;;;;19.67;4.43;;;11.10;66.80;;;;;;5056807;28;20025;-87
2021/05/22 01:17:47;;;;;;;10.88;4.20;;;11.20;66.80;;;;;;5043442;28;20033;-89
2021/05/22 01:20:31;;;;;;;14.55;4.63;;;11.10;66.50;;;;;;5057317;28;20036;-89
2021/05/22 01:23:01;;;;;;;9.27;4.03;;;11.10;66.10;;;;;;5057450;28;20479;-89
2021/05/22 01:25:36;;;;;;;11.55;3.60;;;11.10;65.90;;;;;;5058040;28;20151;-87
2021/05/22 01:28:05;;;;;;;8.65;2.95;;;11.10;65.80;;;;;;5057801;28;20056;-88
2021/05/22 01:30:32;;;;;;;5.75;2.97;;;11.10;65.70;;;;;;5059175;28;20118;-89
2021/05/22 01:32:59;;;;;;;6.53;2.80;;;11.10;65.90;;;;;;5058174;28;20096;-90
2021/05/22 01:35:25;;;;;;;6.45;3.17;;;11.20;65.80;;;;;;5059444;28;20029;-88
2021/05/22 01:37:51;;;;;;;7.93;3.08;;;11.20;65.40;;;;;;5057459;28;20055;-89
2021/05/22 01:40:17;;;;;;;5.07;2.90;;;11.20;65.20;;;;;;5040169;28;20478;-90
2021/05/22 01:42:43;;;;;;;6.20;3.55;;;11.30;65.10;;;;;;5039900;28;20021;-88
2021/05/22 01:45:19;;;;;;;6.30;3.15;;;11.40;64.70;;;;;;5039943;28;20020;-91
2021/05/22 01:47:47;;;;;;;12.77;3.40;;;11.40;64.60;;;;;;5048450;28;20029;-89
2021/05/22 01:50:15;;;;;;;4.53;3.25;;;11.50;64.70;;;;;;5056042;28;20017;-89
2021/05/22 01:52:43;;;;;;;9.05;2.78;;;11.50;64.00;;;;;;5057585;28;20021;-88
2021/05/22 01:55:12;;;;;;;9.88;3.33;;;11.60;64.00;;;;;;5056892;28;20039;-89
2021/05/22 01:57:41;;;;;;;10.63;2.88;;;11.70;63.70;;;;;;5058137;28;20506;-88
2021/05/22 02:00:08;;;;;;;7.68;3.20;;;11.80;63.40;;;;;;5054735;28;20029;-89
2021/05/22 02:02:34;;;;;;;13.95;4.22;;;11.80;63.40;;;;;;5044645;28;20382;-88
2021/05/22 02:05:05;;;;;;;6.90;3.70;;;11.90;63.00;;;;;;5055577;28;20042;-87
2021/05/22 02:07:36;;;;;;;9.55;3.05;;;11.90;63.00;;;;;;5057655;28;20040;-89
2021/05/22 02:10:06;;;;;;;7.10;3.65;;;12.00;63.20;;;;;;5054252;28;20018;-89
2021/05/22 02:12:34;;;;;;;6.95;3.15;;;12.10;63.10;;;;;;5062975;28;20036;-89
2021/05/22 02:15:03;;;;;;;8.68;3.40;;;12.20;62.70;;;;;;5049843;28;20021;-88
2021/05/22 02:17:29;;;;;;;9.27;3.72;;;12.20;62.30;;;;;;5044393;28;20067;-89
2021/05/22 02:19:57;;;;;;;7.90;3.05;;;12.30;62.40;;;;;;5059802;28;20052;-89
2021/05/22 02:22:23;;;;;;;;;;;12.30;61.80;;;;;;5059265;28;20064;-89
2021/05/22 02:24:53;;;;;;;5.95;3.22;;;12.40;62.10;;;;;;5040527;28;19905;-87
2021/05/22 02:27:20;;;;;;;5.57;3.42;;;12.40;61.50;;;;;;5040160;28;20021;-87
2021/05/22 02:29:47;;;;;;;6.10;3.15;;;12.40;61.00;;;;;;5063038;28;20036;-85
2021/05/22 02:32:14;;;;;;;9.50;3.72;;;12.50;61.30;;;;;;5063799;28;20025;-87
2021/05/22 02:34:46;;;;;;;7.57;3.50;;;12.60;61.60;;;;;;5055878;28;20042;-87
2021/05/22 02:37:16;;;;;;;8.85;3.08;;;12.70;61.00;;;;;;5055229;28;20501;-87
2021/05/22 02:39:43;;;;;;;6.97;3.47;;;12.80;60.30;;;;;;5055669;28;20032;-86
2021/05/22 02:42:13;;;;;;;10.93;3.38;;;12.90;59.50;;;;;;5062181;28;20081;-88
2021/05/22 02:44:39;;;;;;;9.85;3.33;;;12.90;59.40;;;;;;5065233;28;20358;-89
2021/05/22 02:47:07;;;;;;;9.98;3.20;;;13.00;59.40;;;;;;5062682;28;20047;-89
2021/05/22 02:49:40;;;;;;;6.72;3.30;;;13.00;59.30;;;;;;5059205;28;20028;-87
2021/05/22 02:52:11;;;;;;;4.70;2.80;;;13.20;58.00;;;;;;5037587;28;20022;-91
2021/05/22 02:54:39;;;;;;;8.43;3.88;;;13.30;58.10;;;;;;5050726;28;20029;-91
2021/05/22 02:57:09;;;;;;;8.70;3.25;;;13.40;58.00;;;;;;5060092;28;20032;-89
2021/05/22 02:59:35;;;;;;;11.68;4.07;;;13.50;57.90;;;;;;5070457;28;20031;-90
2021/05/22 03:02:02;;;;;;;6.85;4.13;;;13.60;57.90;;;;;;5076256;28;20014;-89
2021/05/22 03:04:30;;;;;;;4.97;3.50;;;13.70;57.20;;;;;;5066397;28;20033;-89
2021/05/22 03:06:56;;;;;;;7.47;4.18;;;13.80;56.70;;;;;;5032989;28;20037;-91
2021/05/22 03:09:22;;;;;;;7.93;3.80;;;13.80;56.20;;;;;;5046182;28;20036;-90
2021/05/22 03:11:48;;;;;;;7.72;4.05;;;13.90;56.80;;;;;;5051344;28;20040;-91
2021/05/22 03:14:14;;;;;;;8.73;4.18;;;13.90;56.70;;;;;;5047696;28;20391;-89
2021/05/22 03:16:40;;;;;;;6.88;4.53;;;14.00;56.10;;;;;;5046095;28;20021;-89
2021/05/22 03:19:06;;;;;;;8.02;4.45;;;14.20;56.10;;;;;;5038414;28;20025;-88
2021/05/22 03:21:32;;;;;;;8.30;3.53;;;14.20;56.30;;;;;;5051237;28;20025;-87
2021/05/22 03:23:58;;;;;;;8.77;3.65;;;14.30;55.00;;;;;;5063920;28;20390;-90
2021/05/22 03:26:24;;;;;;;10.93;4.60;;;14.30;54.60;;;;;;5062555;28;20017;-91
2021/05/22 03:28:50;;;;;;;10.10;3.50;;;14.40;54.50;;;;;;5054314;28;20152;-91
2021/05/22 03:31:16;;;;;;;8.27;3.60;;;14.60;54.60;;;;;;5062082;28;20213;-90
2021/05/22 03:33:41;;;;;;;6.32;4.05;;;14.70;54.10;;;;;;5069362;28;20040;-87
2021/05/22 03:36:07;;;;;;;6.18;3.65;;;14.90;53.50;;;;;;5064432;28;20025;-88
2021/05/22 03:38:33;;;;;;;11.43;3.35;;;15.00;54.00;;;;;;5061583;28;20033;-88
2021/05/22 03:40:59;;;;;;;13.30;3.83;;;15.00;52.50;;;;;;5063235;28;20074;-88
2021/05/22 03:43:25;;;;;;;7.20;3.50;;;15.10;52.90;;;;;;5044356;28;20031;-88
2021/05/22 03:45:51;;;;;;;5.97;2.88;;;15.20;53.00;;;;;;5062751;28;20032;-89
2021/05/22 03:48:17;;;;;;;6.55;2.88;;;15.30;52.30;;;;;;5029217;28;20478;-90
2021/05/22 03:50:43;;;;;;;9.07;3.42;;;15.30;51.70;;;;;;5043815;28;20024;-90
2021/05/22 03:53:09;;;;;;;4.97;3.03;;;15.30;51.60;;;;;;5047065;28;20378;-88
2021/05/22 03:55:36;;;;;;;6.63;2.83;;;15.30;51.70;;;;;;5062732;28;20032;-89
2021/05/22 03:58:02;;;;;;;6.00;2.90;;;15.30;51.80;;;;;;5062283;28;20037;-88
2021/05/22 04:00:27;;;;;;;6.53;2.80;;;15.30;51.90;;;;;;5041818;28;20028;-92
2021/05/22 04:02:53;;;;;;;7.85;2.97;;;15.40;51.90;;;;;;5053570;28;20025;-92
2021/05/22 04:05:19;;;;;;;5.68;2.70;;;15.50;51.50;;;;;;5046430;28;20045;-91
2021/05/22 04:07:45;;;;;;;6.47;2.53;;;15.50;51.40;;;;;;5034223;28;20108;-86
2021/05/22 04:10:11;;;;;;;11.38;2.72;;;15.50;50.90;;;;;;5056454;28;20481;-85
2021/05/22 04:12:37;;;;;;;9.20;2.83;;;15.70;51.30;;;;;;5062159;28;20025;-87
2021/05/22 04:15:04;;;;;;;5.90;2.03;;;15.70;50.00;;;;;;5057493;28;20083;-90
2021/05/22 04:17:30;;;;;;;5.85;2.70;;;15.70;50.20;;;;;;5051213;28;20052;-87
2021/05/22 04:19:57;;;;;;;8.13;2.47;;;15.80;50.10;;;;;;5051628;28;20029;-88
2021/05/22 04:22:22;;;;;;;6.47;2.08;;;15.90;49.50;;;;;;5057727;28;20033;-90
2021/05/22 04:24:48;;;;;;;12.73;3.25;;;15.90;49.50;;;;;;5057428;28;20028;-87
2021/05/22 04:27:14;;;;;;;5.65;2.17;;;15.90;49.40;;;;;;5058504;28;20429;-89
2021/05/22 04:29:40;;;;;;;8.77;2.92;;;16.00;49.50;;;;;;5046453;28;20048;-89
2021/05/22 04:32:06;;;;;;;11.27;2.80;;;16.10;49.90;;;;;;5041923;28;20029;-90
2021/05/22 04:34:32;;;;;;;7.57;2.13;;;16.20;49.10;;;;;;5038273;28;20026;-89
2021/05/22 04:36:58;;;;;;;7.53;2.50;;;16.10;48.70;;;;;;5037809;28;20029;-89
2021/05/22 04:39:23;;;;;;;5.43;2.10;;;15.90;48.80;;;;;;5037405;28;20034;-89
2021/05/22 04:41:49;;;;;;;6.05;2.00;;;15.80;48.80;;;;;;5037194;28;20041;-87
2021/05/22 04:44:15;;;;;;;6.00;2.03;;;15.80;49.50;;;;;;5035792;28;20120;-87
2021/05/22 04:46:41;;;;;;;6.60;2.13;;;16.00;48.80;;;;;;5036115;28;20018;-88
2021/05/22 04:49:07;;;;;;;7.13;2.15;;;16.10;49.20;;;;;;5018358;28;20459;-86
2021/05/22 04:51:33;;;;;;;5.75;2.33;;;16.30;48.60;;;;;;5039153;28;20025;-85
2021/05/22 04:54:03;;;;;;;5.75;3.35;;;16.40;48.40;;;;;;5025152;28;20076;-86
2021/05/22 04:56:29;;;;;;;7.57;2.40;;;16.50;48.40;;;;;;5036512;28;20032;-87
2021/05/22 04:58:55;;;;;;;4.05;2.40;;;16.70;48.20;;;;;;5036286;28;20480;-85
2021/05/22 05:01:21;;;;;;;4.22;2.10;;;17.30;47.60;;;;;;5037211;28;20029;-87
2021/05/22 05:03:46;;;;;;;4.20;2.15;;;18.10;45.70;;;;;;5020615;28;20077;-87
2021/05/22 05:06:12;;;;;;;4.50;1.85;;;19.10;44.10;;;;;;5040855;28;20482;-90
2021/05/22 05:08:38;;;;;;;3.40;1.70;;;20.30;41.70;;;;;;5038631;28;20021;-89
2021/05/22 05:11:04;;;;;;;6.90;1.67;;;21.00;40.10;;;;;;5038437;28;20100;-91
2021/05/22 05:13:33;;;;;;;4.57;1.73;;;21.70;38.20;;;;;;5038294;28;20044;-91
2021/05/22 05:15:59;;;;;;;6.47;3.08;;;22.00;37.80;;;;;;5013714;28;20018;-90
2021/05/22 05:18:28;;;;;;;7.20;1.90;;;23.00;36.60;;;;;;5030853;28;20487;-91
2021/05/22 05:20:54;;;;;;;6.30;2.15;;;23.50;34.90;;;;;;5038554;28;20049;-88
2021/05/22 05:23:21;;;;;;;5.18;1.98;;;24.20;34.30;;;;;;5043221;28;20021;-90
2021/05/22 05:25:47;;;;;;;2.92;1.17;;;25.00;33.30;;;;;;5031457;28;20052;-90
2021/05/22 05:28:12;;;;;;;4.75;2.38;;;25.60;31.60;;;;;;5049099;28;20049;-89
2021/05/22 05:30:38;;;;;;;4.57;1.63;;;25.60;30.50;;;;;;5040723;28;20021;-85
2021/05/22 05:33:04;;;;;;;5.05;1.95;;;25.60;30.50;;;;;;5033044;28;20025;-89
2021/05/22 05:35:30;;;;;;;5.10;1.83;;;26.10;30.20;;;;;;5038698;28;20132;-91
2021/05/22 05:37:56;;;;;;;4.85;1.95;;;26.40;30.00;;;;;;5055708;28;20494;-91
2021/05/22 05:40:22;;;;;;;3.30;1.63;;;27.10;30.00;;;;;;5038413;28;20052;-88
2021/05/22 05:42:49;;;;;;;3.75;1.60;;;27.70;29.00;;;;;;5039215;28;20490;-91
2021/05/22 05:45:15;;;;;;;2.88;1.23;;;27.80;28.20;;;;;;5028362;28;20398;-91
2021/05/22 05:47:41;;;;;;;6.90;1.80;;;27.80;28.30;;;;;;5052138;28;20023;-91
2021/05/22 05:50:08;;;;;;;2.43;1.47;;;28.30;28.10;;;;;;5032400;28;20024;-87
2021/05/22 05:52:34;;;;;;;1.92;1.40;;;28.70;27.50;;;;;;5026586;28;20048;-90
2021/05/22 05:55:00;;;;;;;4.72;1.58;;;28.30;27.70;;;;;;5038285;28;20025;-91
2021/05/22 05:57:25;;;;;;;2.53;1.45;;;29.00;27.80;;;;;;5055189;28;20032;-89
2021/05/22 05:59:51;;;;;;;6.22;1.60;;;29.20;27.80;;;;;;5055837;28;20028;-91
2021/05/22 06:02:17;;;;;;;13.68;1.75;;;30.50;27.70;;;;;;5044879;28;20092;-88
2021/05/22 06:04:43;;;;;;;5.10;1.48;;;31.30;27.00;;;;;;5048936;28;20025;-90
2021/05/22 06:07:09;;;;;;;5.25;1.30;;;31.00;26.60;;;;;;5052574;28;20028;-89
2021/05/22 06:09:35;;;;;;;3.40;1.90;;;31.00;26.40;;;;;;5065575;28;20059;-90
2021/05/22 06:12:01;;;;;;;5.88;1.67;;;31.60;26.70;;;;;;5072149;28;20021;-87
2021/05/22 06:14:30;;;;;;;2.63;1.50;;;32.00;26.10;;;;;;5062540;28;20478;-93
2021/05/22 06:16:56;;;;;;;4.75;1.42;;;32.10;26.10;;;;;;5049089;28;20116;-90
2021/05/22 06:19:22;;;;;;;8.23;1.57;;;32.70;25.90;;;;;;5056475;28;20033;-90
2021/05/22 06:21:48;;;;;;;3.07;1.43;;;32.20;25.90;;;;;;5057814;28;20018;-91
2021/05/22 06:24:14;;;;;;;1.90;1.20;;;32.20;26.00;;;;;;5057082;28;20039;-89
2021/05/22 06:26:40;;;;;;;4.63;1.20;;;32.10;25.70;;;;;;5061345;28;20021;-91
2021/05/22 06:29:06;;;;;;;2.40;1.67;;;32.70;26.10;;;;;;5065486;28;20045;-91
2021/05/22 06:31:32;;;;;;;3.92;1.45;;;32.60;25.40;;;;;;5038867;28;20025;-88
2021/05/22 06:33:58;;;;;;;4.77;2.20;;;32.10;25.90;;;;;;5055687;28;20047;-87
2021/05/22 06:36:27;;;;;;;4.45;1.75;;;33.20;26.00;;;;;;5037112;28;20033;-89
2021/05/22 06:38:53;;;;;;;7.05;1.60;;;34.40;25.30;;;;;;5054810;28;20117;-88
2021/05/22 06:41:19;;;;;;;3.10;1.60;;;32.40;25.60;;;;;;5036818;28;20056;-90
2021/05/22 06:43:45;;;;;;;;;;;32.80;26.10;;;;;;5055787;28;20025;-91
2021/05/22 06:48:43;;;;;;;3.95;1.50;;;34.00;25.50;;;;;;5041509;28;20051;-88
2021/05/22 06:51:09;;;;;;;3.08;1.45;;;34.40;25.20;;;;;;5036806;28;20025;-90
2021/05/22 06:53:34;;;;;;;4.70;1.80;;;35.20;24.60;;;;;;5055107;28;20520;-91
2021/05/22 06:56:01;;;;;;;2.43;1.37;;;33.80;24.60;;;;;;5053058;28;20029;-85
2021/05/22 06:58:27;;;;;;;5.07;1.65;;;33.30;25.20;;;;;;5050228;28;20258;-87
2021/05/22 07:00:53;;;;;;;2.47;1.27;;;33.90;25.40;;;;;;5046933;28;20040;-85
2021/05/22 07:03:22;;;;;;;3.80;1.20;;;34.00;25.00;;;;;;5052689;28;20021;-86
2021/05/22 07:05:49;;;;;;;4.38;1.48;;;32.60;25.00;;;;;;5053600;28;20096;-85
2021/05/22 07:08:15;;;;;;;;;;;32.80;25.60;;;;;;5047790;28;20044;-85
2021/05/22 07:10:41;;;;;;;1.65;1.10;;;33.20;26.20;;;;;;5038422;28;19905;-84
2021/05/22 07:13:06;;;;;;;8.43;1.60;;;34.00;24.90;;;;;;5046734;28;20056;-84
2021/05/22 07:15:32;;;;;;;4.67;1.43;;;35.10;24.50;;;;;;5052393;28;20053;-84
2021/05/22 07:17:58;;;;;;;3.50;1.40;;;35.00;24.00;;;;;;5050881;28;20021;-86
2021/05/22 07:20:24;;;;;;;5.43;1.63;;;34.20;24.40;;;;;;5047047;28;20390;-86
2021/05/22 07:22:56;;;;;;;2.63;1.30;;;33.70;24.50;;;;;;5052672;28;20029;-87
2021/05/22 07:25:22;;;;;;;3.00;1.85;;;33.30;24.90;;;;;;5046284;28;20080;-87
2021/05/22 07:27:52;;;;;;;6.63;1.67;;;31.90;25.70;;;;;;5050647;28;20040;-87
2021/05/22 07:30:20;;;;;;;8.68;1.80;;;31.20;26.20;;;;;;5054130;28;20024;-88
2021/05/22 07:32:49;;;;;;;3.80;1.60;;;31.90;26.30;;;;;;5018246;28;20403;-86
2021/05/22 07:35:18;;;;;;;4.20;1.25;;;32.00;25.40;;;;;;5053988;28;20118;-87
2021/05/22 07:37:44;;;;;;;3.45;1.52;;;31.20;25.70;;;;;;5050705;28;20032;-87
2021/05/22 07:40:11;;;;;;;5.10;1.67;;;31.60;26.20;;;;;;5035314;28;20029;-90
2021/05/22 07:42:38;;;;;;;5.63;1.75;;;32.90;25.90;;;;;;5055353;28;20537;-91
2021/05/22 07:45:08;;;;;;;10.52;2.80;;;33.40;25.50;;;;;;5058124;28;20028;-87
2021/05/22 07:47:34;;;;;;;3.92;1.30;;;33.30;25.60;;;;;;5058428;28;20029;-87
2021/05/22 07:50:00;;;;;;;6.47;1.80;;;33.30;24.80;;;;;;5054318;28;20068;-89
2021/05/22 07:52:27;;;;;;;3.77;1.60;;;32.20;25.40;;;;;;5062058;28;20025;-93
2021/05/22 07:54:56;;;;;;;2.30;1.40;;;32.70;26.10;;;;;;5061195;28;20017;-89
2021/05/22 07:57:23;;;;;;;1.70;1.23;;;33.20;25.60;;;;;;5057406;28;20043;-93
2021/05/22 07:59:49;;;;;;;2.67;1.45;;;33.80;24.90;;;;;;5060017;28;20043;-91
2021/05/22 08:02:18;;;;;;;2.03;1.40;;;34.50;25.00;;;;;;5061103;28;20100;-91
2021/05/22 08:04:44;;;;;;;1.92;1.30;;;35.70;24.40;;;;;;5057839;28;20092;-89
2021/05/22 08:07:10;;;;;;;4.95;0.98;;;35.50;23.50;;;;;;5053582;28;20051;-87
2021/05/22 08:09:35;;;;;;;2.80;1.48;;;35.90;23.40;;;;;;5049014;28;20057;-88
2021/05/22 08:12:01;;;;;;;4.23;1.80;;;34.80;24.00;;;;;;5064851;28;20025;-90
2021/05/22 08:14:27;;;;;;;4.30;1.30;;;33.90;24.30;;;;;;5059323;28;20269;-90
2021/05/22 08:16:53;;;;;;;3.35;1.40;;;34.60;24.30;;;;;;5056790;28;20290;-89
2021/05/22 08:19:19;;;;;;;3.70;1.20;;;35.70;24.00;;;;;;5039509;28;20036;-90
2021/05/22 08:21:45;;;;;;;2.75;1.63;;;36.00;23.40;;;;;;5058343;28;20051;-90
2021/05/22 08:24:12;;;;;;;3.47;1.70;;;36.60;23.30;;;;;;5053385;28;20033;-89
2021/05/22 08:26:39;;;;;;;9.48;2.00;;;37.20;23.20;;;;;;5056839;28;20021;-88
2021/05/22 08:29:06;;;;;;;2.72;1.13;;;37.20;22.90;;;;;;5065110;28;20036;-88
2021/05/22 08:31:33;;;;;;;2.83;1.30;;;37.00;23.20;;;;;;5041542;28;20029;-93
2021/05/22 08:34:00;;;;;;;6.22;1.70;;;37.20;22.70;;;;;;5051684;28;20017;-89
2021/05/22 08:36:27;;;;;;;5.90;1.77;;;36.70;22.90;;;;;;5054326;28;20111;-91
2021/05/22 08:38:53;;;;;;;9.88;1.98;;;37.20;22.40;;;;;;5059349;28;20025;-90
2021/05/22 08:41:20;;;;;;;5.93;1.58;;;37.20;22.40;;;;;;5039559;28;20097;-89
2021/05/22 08:43:48;;;;;;;8.23;2.50;;;36.10;22.60;;;;;;5058465;28;20036;-90
2021/05/22 08:46:16;;;;;;;4.13;2.20;;;35.30;23.50;;;;;;5054912;28;20021;-85
2021/05/22 08:48:43;;;;;;;7.20;2.10;;;35.20;23.80;;;;;;5053311;28;20037;-91
2021/05/22 08:51:10;;;;;;;4.75;1.38;;;36.50;23.50;;;;;;5055751;28;20466;-91
2021/05/22 08:53:38;;;;;;;2.25;1.42;;;37.20;22.70;;;;;;5045245;28;20033;-92
2021/05/22 08:56:05;;;;;;;3.55;1.38;;;36.50;22.90;;;;;;5049431;28;20080;-88
2021/05/22 08:58:32;;;;;;;2.80;1.73;;;36.40;23.00;;;;;;5053583;28;20022;-89
2021/05/22 09:01:01;;;;;;;4.10;1.50;;;36.20;23.30;;;;;;5036308;28;20039;-88
2021/05/22 09:03:28;;;;;;;3.13;1.20;;;36.00;23.40;;;;;;5058147;28;20390;-88
2021/05/22 09:05:54;;;;;;;2.72;1.40;;;36.40;23.20;;;;;;5057791;28;20474;-90
2021/05/22 09:08:20;;;;;;;4.18;1.55;;;36.60;22.70;;;;;;5056490;28;20119;-88
2021/05/22 09:10:52;;;;;;;3.10;1.00;;;35.70;23.00;;;;;;5035404;28;20013;-87
2021/05/22 09:13:32;;;;;;;4.43;1.63;;;35.60;23.20;;;;;;5045361;28;20032;-86
2021/05/22 09:16:06;;;;;;;3.35;1.05;;;36.30;23.20;;;;;;5058391;28;20092;-89
2021/05/22 09:18:44;;;;;;;5.30;1.60;;;37.00;22.90;;;;;;5058263;28;20033;-88
2021/05/22 09:21:11;;;;;;;1.35;0.90;;;37.30;23.10;;;;;;5031529;28;20025;-85
2021/05/22 09:23:40;;;;;;;3.53;1.10;;;37.50;22.40;;;;;;5038762;28;20082;-85
2021/05/22 09:26:14;;;;;;;3.58;1.20;;;37.60;22.00;;;;;;5055590;28;20028;-89
2021/05/22 09:28:48;;;;;;;1.52;1.10;;;38.10;21.50;;;;;;5058412;28;20052;-87
2021/05/22 09:31:21;;;;;;;3.13;1.20;;;36.10;21.80;;;;;;5044579;28;20025;-91
2021/05/22 09:33:49;;;;;;;2.85;1.02;;;35.60;22.50;;;;;;5045808;28;20056;-91
2021/05/22 09:36:16;;;;;;;6.55;1.52;;;36.10;22.70;;;;;;5057827;28;20386;-91
2021/05/22 09:38:49;;;;;;;6.00;2.20;;;36.10;22.90;;;;;;5031187;28;20093;-89
2021/05/22 09:41:33;;;;;;;3.55;1.75;;;34.80;23.50;;;;;;5033975;28;20025;-90
2021/05/22 09:44:22;;;;;;;5.15;1.60;;;32.40;23.80;;;;;;5056637;28;20021;-89
2021/05/22 09:46:49;;;;;;;3.50;1.52;;;31.70;25.20;;;;;;5055236;28;20020;-85
2021/05/22 09:49:28;;;;;;;5.03;1.67;;;31.80;25.20;;;;;;5054410;28;20036;-85
2021/05/22 09:52:01;;;;;;;8.45;1.50;;;32.10;24.80;;;;;;5053667;28;20021;-86
2021/05/22 09:54:58;;;;;;;3.28;1.90;;;31.80;24.70;;;;;;5054025;28;20025;-88
2021/05/22 09:57:35;;;;;;;2.17;1.50;;;32.40;24.90;;;;;;5057621;28;20105;-90
2021/05/22 10:00:19;;;;;;;4.85;1.60;;;33.30;24.30;;;;;;5061901;28;20064;-91
2021/05/22 10:02:48;;;;;;;4.85;1.50;;;33.30;24.50;;;;;;5039867;28;20558;-92
2021/05/22 10:05:25;;;;;;;4.35;1.63;;;34.50;24.30;;;;;;5054853;28;20017;-94
2021/05/22 10:07:51;;;;;;;;;;;35.40;23.50;;;;;;5068462;28;20051;-94
2021/05/22 10:10:21;;;;;;;1.25;1.00;;;35.90;23.60;;;;;;5053730;28;19905;-87
2021/05/22 10:12:50;;;;;;;3.95;0.70;;;35.30;23.00;;;;;;5004985;28;20079;-93
2021/05/22 10:15:18;;;;;;;2.10;1.50;;;35.20;22.70;;;;;;5032584;28;20090;-91
2021/05/22 10:17:44;;;;;;;3.70;2.25;;;34.50;22.90;;;;;;5056285;28;20017;-93
2021/05/22 10:20:12;;;;;;;5.25;2.83;;;34.00;23.20;;;;;;5056399;28;20507;-92
2021/05/22 10:22:41;;;;;;;3.53;2.20;;;33.60;23.90;;;;;;5056640;28;20044;-90
2021/05/22 10:25:08;;;;;;;2.92;1.92;;;34.00;23.70;;;;;;5060016;28;20025;-94
2021/05/22 10:27:34;;;;;;;6.53;2.17;;;32.10;24.10;;;;;;5062035;28;20052;-91
2021/05/22 10:30:06;;;;;;;4.40;1.60;;;30.30;25.20;;;;;;5059948;28;20021;-89
2021/05/22 10:32:32;;;;;;;5.50;1.80;;;28.40;27.10;;;;;;5038383;28;20029;-90
2021/05/22 10:35:08;;;;;;;2.95;1.73;;;27.10;27.70;;;;;;5055044;28;20078;-90
2021/05/22 10:37:45;;;;;;;2.78;1.85;;;26.00;28.80;;;;;;5055968;28;20056;-90
2021/05/22 10:40:16;;;;;;;4.10;3.05;;;25.30;28.60;;;;;;5050672;28;20100;-93
2021/05/22 10:42:48;;;;;;;2.85;1.83;;;24.70;29.40;;;;;;5035963;28;20048;-91
2021/05/22 10:45:23;;;;;;;2.95;1.50;;;24.40;30.20;;;;;;5070967;28;20025;-95
2021/05/22 10:47:49;;;;;;;3.50;1.50;;;24.40;30.80;;;;;;5062118;28;20138;-92
2021/05/22 10:50:40;;;;;;;3.13;1.88;;;24.20;30.80;;;;;;5074309;28;20017;-90
2021/05/22 10:53:38;;;;;;;6.85;1.83;;;23.80;31.70;;;;;;5061195;28;20021;-89
2021/05/22 10:56:14;;;;;;;2.88;2.00;;;23.60;31.70;;;;;;5013257;28;20039;-91
2021/05/22 10:59:00;;;;;;;6.25;2.60;;;23.70;31.70;;;;;;5042863;28;20087;-93
2021/05/22 11:01:28;;;;;;;4.15;1.60;;;23.80;31.60;;;;;;5040600;28;20033;-92
2021/05/22 11:04:28;;;;;;;2.00;1.40;;;23.70;31.20;;;;;;5026681;28;20380;-90
2021/05/22 11:06:59;;;;;;;1.95;1.48;;;23.30;31.10;;;;;;4960518;28;20046;-89
2021/05/22 11:09:25;;;;;;;2.67;1.20;;;23.20;32.80;;;;;;4965576;28;20038;-89
2021/05/22 11:11:52;;;;;;;2.25;1.50;;;23.20;32.10;;;;;;4974209;28;20023;-88
2021/05/22 11:14:37;;;;;;;4.63;1.65;;;23.20;32.50;;;;;;4975150;28;20047;-90
2021/05/22 11:17:25;;;;;;;2.78;1.52;;;22.90;32.40;;;;;;4978257;28;20462;-89
2021/05/22 11:19:57;;;;;;;4.20;1.40;;;22.70;33.20;;;;;;4957935;28;20069;-88
2021/05/22 11:22:29;;;;;;;5.05;1.50;;;22.50;33.50;;;;;;4983874;28;20042;-90
2021/05/22 11:25:00;;;;;;;3.97;1.80;;;22.20;34.10;;;;;;4969979;28;20019;-89
2021/05/22 11:27:48;;;;;;;2.78;1.58;;;22.20;34.00;;;;;;4982236;28;20030;-87
2021/05/22 11:30:18;;;;;;;4.20;2.03;;;22.20;34.20;;;;;;4973496;28;20038;-90
2021/05/22 11:33:02;;;;;;;7.78;1.85;;;22.20;34.10;;;;;;4964174;28;20027;-91
2021/05/22 11:35:31;;;;;;;1.60;1.48;;;22.40;34.50;;;;;;4977614;28;20574;-89
2021/05/22 11:38:19;;;;;;;3.72;1.63;;;22.40;34.50;;;;;;4978200;28;20033;-91
2021/05/22 11:40:45;;;;;;;6.28;2.38;;;22.20;34.50;;;;;;4976876;28;20089;-89
2021/05/22 11:43:18;;;;;;;2.30;1.58;;;22.10;35.20;;;;;;5030483;28;20025;-89
2021/05/22 11:46:05;;;;;;;4.35;2.42;;;22.30;34.40;;;;;;5063258;28;20025;-89
2021/05/22 11:48:32;;;;;;;;;;;22.30;36.40;;;;;;5058547;28;20041;-89
2021/05/22 11:50:58;;;;;;;6.63;1.70;;;22.50;34.40;;;;;;5036283;28;20397;-87
2021/05/22 11:53:29;;;;;;;2.63;1.70;;;22.60;32.70;;;;;;5063818;28;20024;-91
2021/05/22 11:56:09;;;;;;;3.42;2.00;;;22.40;33.30;;;;;;5063526;28;20085;-88
2021/05/22 11:58:40;;;;;;;6.53;2.85;;;22.30;33.80;;;;;;5051662;28;20021;-89
2021/05/22 12:01:15;;;;;;;5.05;2.10;;;22.30;34.50;;;;;;5055148;28;20017;-87
2021/05/22 12:03:46;;;;;;;2.92;1.63;;;22.50;34.40;;;;;;5056660;28;20024;-89
2021/05/22 12:06:23;;;;;;;2.92;1.90;;;22.60;33.70;;;;;;5049239;28;20025;-89
2021/05/22 12:09:17;;;;;;;3.25;1.98;;;22.40;34.40;;;;;;5047392;28;20029;-86
2021/05/22 12:12:04;;;;;;;5.10;1.73;;;22.30;34.40;;;;;;5052566;28;20454;-91
2021/05/22 12:14:37;;;;;;;6.65;2.13;;;22.50;33.70;;;;;;5052545;28;20418;-88
2021/05/22 12:17:03;;;;;;;11.73;2.35;;;22.60;33.60;;;;;;5055727;28;20516;-88
2021/05/22 12:19:35;;;;;;;4.82;1.48;;;22.70;33.50;;;;;;5054367;28;20056;-90
2021/05/22 12:22:01;;;;;;;4.35;2.33;;;22.40;33.80;;;;;;5068170;28;20025;-89
2021/05/22 12:24:28;;;;;;;3.35;1.60;;;22.00;34.00;;;;;;5059498;28;20025;-89
2021/05/22 12:26:55;;;;;;;;;;;21.90;34.60;;;;;;5064739;28;20021;-90
2021/05/22 12:29:23;;;;;;;3.97;1.80;;;21.80;34.30;;;;;;5048824;28;19965;-89
2021/05/22 12:31:55;;;;;;;2.75;1.60;;;21.60;34.90;;;;;;5037684;28;20057;-87
2021/05/22 12:34:36;;;;;;;5.35;2.25;;;21.60;35.20;;;;;;5020794;28;20037;-88
2021/05/22 12:37:11;;;;;;;4.38;1.98;;;21.50;35.00;;;;;;5036212;28;20052;-90
2021/05/22 12:39:41;;;;;;;5.72;1.88;;;21.30;35.50;;;;;;5030766;28;20049;-84
2021/05/22 12:42:15;;;;;;;5.93;2.60;;;21.50;36.40;;;;;;5035111;28;20022;-87
2021/05/22 12:44:58;;;;;;;5.10;2.00;;;21.80;36.50;;;;;;5037307;28;20117;-89
2021/05/22 12:47:36;;;;;;;4.45;2.22;;;22.10;35.70;;;;;;5019811;28;20449;-88
2021/05/22 12:50:06;;;;;;;7.05;1.95;;;22.20;35.30;;;;;;5036401;28;20018;-87
2021/05/22 12:53:07;;;;;;;5.22;2.17;;;22.20;35.30;;;;;;5034779;28;20030;-85
2021/05/22 12:55:35;;;;;;;4.55;1.95;;;22.20;35.20;;;;;;5021929;28;20025;-83
2021/05/22 12:58:18;;;;;;;2.60;1.77;;;22.10;34.30;;;;;;5034992;28;20017;-87
2021/05/22 13:00:49;;;;;;;7.30;2.35;;;21.90;34.50;;;;;;5033815;28;20194;-86